Flight Track Log - Related Links

Times and Time Zones

All times are in EDT time to prevent confusion due to time zone crossing. See the FLG3709 flight status page for this flight to view local times or setup timezone preferences in your user account.

Time Position Orientation Groundspeed Altitude Reporting Facility
EDT Latitude Longitude Course Direction KTS MPH feet Rate Location/Type
Fri 07:17:32 AM 40.5144 -80.1517 270° West 244 281 3,000  Level Cleveland Center
Fri 07:18:32 AM 40.5500 -80.1869 323° Northwest 206 237 5,100 2,100 Climbing Cleveland Center
Fri 07:19:32 AM 40.5294 -80.2553 248° West 206 237 7,200 2,150 Climbing Cleveland Center
Fri 07:20:00 AM 40.4667 -80.6591 270° West  Level FlightAware Approximate
Fri 07:20:32 AM 40.4983 -80.3319 242° Southwest 218 251 9,400  Level Cleveland Center
Fri 07:21:00 AM 40.4667 -80.7703 270° West  Level FlightAware Approximate
Fri 07:21:32 AM 40.4986 -80.4383 270° West 241 277 11,300  Level Cleveland Center
Fri 07:22:00 AM 40.4667 -80.8815 270° West  Level FlightAware Approximate
Fri 07:22:32 AM 40.4967 -80.5531 269° West 282 325 12,700  Level Cleveland Center
Fri 07:23:33 AM 40.4944 -80.6758 269° West 315 362 14,300 1,650 Climbing Cleveland Center
Fri 07:24:32 AM 40.4922 -80.7933 269° West 330 380 16,000 1,700 Climbing Cleveland Center
Fri 07:25:33 AM 40.4897 -80.9133 268° West 330 380 17,700 1,690 Climbing Cleveland Center
Fri 07:27:26 AM 40.4819 -81.1258 267° West 310 357 20,900 1,440 Climbing Indianapolis Center
Fri 07:28:28 AM 40.4808 -81.2414 269° West 314 361 21,900 585 Climbing Indianapolis Center
Fri 07:29:29 AM 40.4769 -81.3631 268° West 327 376 22,100 541 Climbing Indianapolis Center
Fri 07:30:30 AM 40.4747 -81.4881 269° West 338 389 23,000 541 Climbing Indianapolis Center
Fri 07:31:31 AM 40.4486 -81.6086 254° West 343 395 23,200 443 Climbing Indianapolis Center
Fri 07:32:32 AM 40.4147 -81.7275 250° West 343 395 23,900 787 Climbing Indianapolis Center
Fri 07:33:33 AM 40.3789 -81.8439 248° West 340 391 24,800 878 Climbing Indianapolis Center
Fri 07:34:35 AM 40.3447 -81.9564 248° West 332 382 25,700 780 Climbing Indianapolis Center
Fri 07:35:36 AM 40.3106 -82.0697 248° West 331 381 26,400 590 Climbing Indianapolis Center
Fri 07:36:37 AM 40.2758 -82.1839 248° West 333 383 26,900 492 Climbing Indianapolis Center
Fri 07:37:38 AM 40.2372 -82.3094 248° West 341 392 27,400 492 Climbing Indianapolis Center
Fri 07:38:39 AM 40.2011 -82.4278 248° West 346 398 27,900 49 Climbing Indianapolis Center
Fri 07:39:41 AM 40.1633 -82.5464 247° West 351 404 27,500 -780 Descending Indianapolis Center
Fri 07:40:42 AM 40.1222 -82.6581 244° Southwest 340 391 26,300 -1,279 Descending Indianapolis Center
Fri 07:41:43 AM 40.0792 -82.7625 242° Southwest 325 374 24,900 -1,377 Descending Indianapolis Center
Fri 07:42:44 AM 40.0361 -82.8625 241° Southwest 314 361 23,500 -1,366 Descending Indianapolis Center
Fri 07:43:46 AM 39.9931 -82.9658 241° Southwest 321 369 22,100 -732 Descending Indianapolis Center
Fri 07:44:47 AM 39.9506 -83.0678 241° Southwest 319 367 22,000 -49 Descending Indianapolis Center
Fri 07:45:48 AM 39.9086 -83.1678 241° Southwest 313 360 22,000 -49 Level Indianapolis Center
Fri 07:46:50 AM 39.8656 -83.2706 241° Southwest 318 366 21,900 -780 Descending Indianapolis Center
Fri 07:47:51 AM 39.8225 -83.3733 241° Southwest 318 366 20,400 -1,475 Descending Indianapolis Center
Fri 07:48:52 AM 39.7825 -83.4650 240° Southwest 281 323 18,900 -1,561 Descending Indianapolis Center
Fri 07:49:54 AM 39.7464 -83.5500 241° Southwest 263 303 17,200 -1,512 Descending Indianapolis Center
Fri 07:50:55 AM 39.7103 -83.6358 241° Southwest 266 306 15,800 -1,328 Descending Indianapolis Center
Fri 07:51:56 AM 39.6731 -83.7217 241° Southwest 268 308 14,500 -1,122 Descending Indianapolis Center
Fri 07:52:58 AM 39.6375 -83.8044 241° Southwest 262 302 13,500 -976 Descending Indianapolis Center
Fri 07:53:59 AM 39.6011 -83.8889 241° Southwest 265 305 12,500 -984 Descending Indianapolis Center
Fri 07:55:00 AM 39.5533 -83.9647 231° Southwest 267 307 11,500 -780 Descending Indianapolis Center
Fri 07:56:02 AM 39.5019 -84.0361 227° Southwest 269 310 10,900 -293 Descending Indianapolis Center
Fri 07:57:03 AM 39.4508 -84.1075 227° Southwest 268 308 10,900 49 Level Indianapolis Center
Fri 07:58:05 AM 39.4008 -84.1756 226° Southwest 261 300 11,000 -823 Climbing Indianapolis Center
Fri 07:59:07 AM 39.3294 -84.2114 201° Southwest 237 273 9,200 -1,756 Descending Indianapolis Center
Fri 08:00:08 AM 39.2722 -84.2442 204° Southwest 228 262 7,400 -1,561 Descending Indianapolis Center
Fri 08:01:10 AM 39.2214 -84.2825 210° Southwest 220 253 6,000 -683 Descending Indianapolis Center
Fri 08:02:11 AM 39.1733 -84.3281 216° Southwest 214 246 6,000 -488 Level Indianapolis Center
Fri 08:03:13 AM 39.1272 -84.3700 215° Southwest 208 239 5,000 -1,111 Descending Indianapolis Center
Fri 08:03:59 AM 39.0833 -84.4000 208° Southwest 190 219 4,000 -792 Descending Cincinnati TRACON
Fri 08:04:59 AM 39.0500 -84.4333 218° Southwest 191 220 3,600 -400 Descending Cincinnati TRACON

Login

Don't have an account? Register now (free) for customized features, flight alerts, and more!